TAX73JC TNCM-LPPR
Flight info
| Callsign | TAX73JC |
|---|---|
| Flight time | N/A |
| Altitude | 35000 |
| Route | PJM DCT MNOLO M576 OBIKE/M084F350 DCT KAVAX DCT 25N059W 30N055W 35N049W 40N040W/M084F370 42N030W 42N020W DCT DETOX/N0483F370 DCT PARAV DCT ASMOV |
| Aircraft | B77W/H-SDE1E2E3FGHIJ2J3J4J5M1RWXY/LB1D1 |
Departure
| Time | 2026-05-04 12:21 |
|---|---|
| Airport | Princess Juliana International Airport (TNCM) |
Arrival
| Time | N/A |
|---|---|
| Airport | Francisco de Sá Carneiro Airport (LPPR) |
| Time | Latitude | Longitude | Altitude | Speed | Heading |
|---|---|---|---|---|---|
| 2026-05-04 12:03 | 18.04332 | -63.11294 | 33 ft | 0 kts | 349° |
| 2026-05-04 12:12 | 18.04325 | -63.11293 | 33 ft | 4 kts | 352° |
| 2026-05-04 12:13 | 18.04298 | -63.11292 | 32 ft | 4 kts | 9° |
| 2026-05-04 12:14 | 18.04183 | -63.11306 | 32 ft | 0 kts | 352° |
| 2026-05-04 12:16 | 18.04184 | -63.11307 | 32 ft | 2 kts | 352° |
| 2026-05-04 12:17 | 18.04223 | -63.11321 | 32 ft | 9 kts | 323° |
| 2026-05-04 12:17 | 18.04235 | -63.11385 | 33 ft | 9 kts | 261° |
| 2026-05-04 12:17 | 18.04225 | -63.11452 | 33 ft | 9 kts | 257° |
| 2026-05-04 12:17 | 18.04194 | -63.11512 | 33 ft | 9 kts | 231° |
| 2026-05-04 12:18 | 18.04152 | -63.11565 | 33 ft | 9 kts | 231° |
| 2026-05-04 12:18 | 18.04111 | -63.11619 | 33 ft | 9 kts | 231° |
| 2026-05-04 12:18 | 18.04058 | -63.11655 | 32 ft | 10 kts | 187° |
| 2026-05-04 12:18 | 18.03992 | -63.11673 | 32 ft | 11 kts | 230° |
| 2026-05-04 12:19 | 18.03970 | -63.11749 | 32 ft | 12 kts | 261° |
| 2026-05-04 12:19 | 18.03962 | -63.11836 | 32 ft | 12 kts | 275° |
| 2026-05-04 12:19 | 18.03986 | -63.11923 | 32 ft | 11 kts | 283° |
| 2026-05-04 12:19 | 18.03958 | -63.11951 | 32 ft | 5 kts | 158° |
| 2026-05-04 12:20 | 18.03946 | -63.11918 | 32 ft | 6 kts | 90° |
| 2026-05-04 12:20 | 18.03949 | -63.11895 | 32 ft | 0 kts | 82° |
| 2026-05-04 12:20 | 18.03955 | -63.11851 | 32 ft | 35 kts | 82° |
| 2026-05-04 12:20 | 18.04047 | -63.11207 | 33 ft | 142 kts | 81° |
| 2026-05-04 12:21 | 18.04242 | -63.09928 | 548 ft | 190 kts | 84° |
| 2026-05-04 12:21 | 18.04246 | -63.08581 | 1799 ft | 193 kts | 103° |
| 2026-05-04 12:21 | 18.03439 | -63.07347 | 2055 ft | 228 kts | 141° |
| 2026-05-04 12:21 | 18.01838 | -63.06893 | 2600 ft | 250 kts | 177° |
| 2026-05-04 12:22 | 18.00071 | -63.07040 | 3449 ft | 257 kts | 182° |
| 2026-05-04 12:22 | 17.98275 | -63.07252 | 4274 ft | 262 kts | 181° |
| 2026-05-04 12:22 | 17.96446 | -63.07430 | 5132 ft | 267 kts | 181° |
| 2026-05-04 12:22 | 17.94561 | -63.07599 | 5916 ft | 275 kts | 181° |
| 2026-05-04 12:23 | 17.92634 | -63.07764 | 6720 ft | 282 kts | 180° |
| 2026-05-04 12:23 | 17.90672 | -63.07922 | 7559 ft | 284 kts | 181° |
| 2026-05-04 12:23 | 17.88698 | -63.08084 | 8435 ft | 286 kts | 181° |
| 2026-05-04 12:23 | 17.86702 | -63.08219 | 9242 ft | 287 kts | 175° |
| 2026-05-04 12:24 | 17.84792 | -63.07649 | 9871 ft | 292 kts | 146° |
| 2026-05-04 12:24 | 17.83359 | -63.06140 | 10466 ft | 299 kts | 120° |
| 2026-05-04 12:24 | 17.82668 | -63.04015 | 10732 ft | 324 kts | 94° |
| 2026-05-04 12:24 | 17.82999 | -63.01606 | 10923 ft | 350 kts | 68° |
| 2026-05-04 12:25 | 17.84447 | -62.99468 | 11163 ft | 374 kts | 40° |
| 2026-05-04 12:25 | 17.86766 | -62.98175 | 11768 ft | 387 kts | 15° |
| 2026-05-04 12:25 | 17.89461 | -62.98009 | 12459 ft | 391 kts | 353° |
| 2026-05-04 12:25 | 17.92173 | -62.98426 | 13055 ft | 398 kts | 352° |
| 2026-05-04 12:26 | 17.94935 | -62.98838 | 13767 ft | 404 kts | 352° |
| 2026-05-04 12:26 | 17.97727 | -62.99236 | 14472 ft | 407 kts | 353° |
| 2026-05-04 12:26 | 18.00554 | -62.99578 | 15193 ft | 410 kts | 356° |
| 2026-05-04 12:26 | 18.03406 | -62.99454 | 15908 ft | 413 kts | 11° |
| 2026-05-04 12:27 | 18.06116 | -62.98434 | 16575 ft | 419 kts | 30° |
| 2026-05-04 12:27 | 18.08467 | -62.96625 | 17180 ft | 420 kts | 38° |
| 2026-05-04 12:27 | 18.10809 | -62.94728 | 17634 ft | 429 kts | 34° |
| 2026-05-04 12:27 | 18.13291 | -62.92967 | 18263 ft | 434 kts | 31° |
| 2026-05-04 12:28 | 18.15883 | -62.91301 | 18788 ft | 438 kts | 28° |
| 2026-05-04 12:28 | 18.18529 | -62.89706 | 19451 ft | 439 kts | 27° |
| 2026-05-04 12:28 | 18.21197 | -62.88142 | 20115 ft | 440 kts | 28° |
| 2026-05-04 12:28 | 18.23807 | -62.86609 | 20702 ft | 442 kts | 28° |
| 2026-05-04 12:29 | 18.26414 | -62.85074 | 21316 ft | 444 kts | 28° |
| 2026-05-04 12:29 | 18.29115 | -62.83474 | 21924 ft | 446 kts | 29° |
| 2026-05-04 12:29 | 18.31787 | -62.81882 | 22552 ft | 447 kts | 30° |
| 2026-05-04 12:29 | 18.34516 | -62.80220 | 23126 ft | 449 kts | 33° |
| 2026-05-04 12:30 | 18.36924 | -62.78194 | 23698 ft | 450 kts | 44° |
| 2026-05-04 12:30 | 18.39133 | -62.75843 | 24172 ft | 452 kts | 46° |
| 2026-05-04 12:30 | 18.41317 | -62.73460 | 24615 ft | 455 kts | 45° |
| 2026-05-04 12:30 | 18.43538 | -62.71084 | 25098 ft | 456 kts | 45° |
| 2026-05-04 12:31 | 18.45781 | -62.68715 | 25481 ft | 460 kts | 44° |
| 2026-05-04 12:31 | 18.48066 | -62.66328 | 25826 ft | 465 kts | 44° |
| 2026-05-04 12:31 | 18.50381 | -62.63927 | 26204 ft | 468 kts | 44° |
| 2026-05-04 12:31 | 18.52718 | -62.61514 | 26565 ft | 472 kts | 44° |
| 2026-05-04 12:32 | 18.55076 | -62.59087 | 26905 ft | 476 kts | 43° |
| 2026-05-04 12:32 | 18.59849 | -62.54154 | 27592 ft | 483 kts | 43° |
| 2026-05-04 12:32 | 18.62244 | -62.51670 | 27989 ft | 485 kts | 44° |
| 2026-05-04 12:33 | 18.64669 | -62.49168 | 28302 ft | 489 kts | 43° |
| 2026-05-04 12:33 | 18.67107 | -62.46649 | 28642 ft | 492 kts | 43° |
| 2026-05-04 12:33 | 18.69549 | -62.44124 | 28995 ft | 493 kts | 43° |
| 2026-05-04 12:33 | 18.72012 | -62.41582 | 29316 ft | 496 kts | 43° |